Mora RC

Feb. 28, 2020, 10 a.m.

  • imperial
Air Temperature RH Dewpoint Wind Chill Heat Index Wind Speed Wind Direction Precipitation Solar Radiation Soil Temperature
Date Time Max Mean Mean Total Total
US/Mountain F % F F F MPH MPH MPH deg. deg. in. MJ/m^2 F
2020-02-27 10:00 41.61 18.51 1.78 35.02 41.61 11.52 18.86 12.1 352.4 304.4 0.0 0.19 33.33
2020-02-27 10:05 42.04 16.42 -0.43 35.43 42.04 11.88 20.29 10.98 300.8 316.2 0.0 0.193 33.33
2020-02-27 10:10 42.22 16.83 0.24 36.41 42.22 9.91 16.89 10.38 341.0 319.9 0.0 0.198 33.33
2020-02-27 10:15 42.35 14.99 -2.11 36.35 42.35 10.45 15.64 9.98 2.6 318.6 0.0 0.201 33.37
2020-02-27 10:20 42.84 14.44 -2.5 38.9 42.84 6.35 12.59 8.81 341.0 327.8 0.0 0.205 33.37
2020-02-27 10:25 43.21 14.85 -1.61 37.85 43.21 9.4 13.49 9.35 287.6 320.8 0.0 0.209 33.39
2020-02-27 10:30 43.2 13.86 -3.08 35.34 43.2 17.07 19.75 11.36 293.5 321.7 0.0 0.212 33.42
2020-02-27 10:35 43.38 13.01 -4.26 36.36 43.38 14.2 15.99 10.8 310.2 323.1 0.0 0.215 33.46
2020-02-27 10:40 43.38 14.61 -1.82 38.05 43.38 9.4 18.68 12.26 329.7 332.0 0.0 0.217 33.48
2020-02-27 10:45 43.14 12.8 -4.78 37.13 43.14 10.98 23.69 14.18 326.9 324.1 0.0 0.221 33.55
2020-02-27 10:50 43.75 13.89 -2.58 37.64 43.75 11.7 15.82 10.85 291.2 323.0 0.0 0.223 33.62
2020-02-27 10:55 43.63 13.93 -2.62 38.43 43.63 9.22 21.18 11.95 325.2 327.0 0.0 0.226 33.69
2020-02-27 11:00 43.45 12.66 -4.77 37.71 43.45 10.45 20.65 12.95 330.6 329.1 0.0 0.228 33.8
2020-02-27 11:05 43.74 12.77 -4.36 37.2 43.74 12.95 17.43 12.82 296.4 311.2 0.0 0.23 33.87
2020-02-27 11:10 43.99 13.55 -2.92 38.06 43.99 11.34 15.46 11.32 315.0 318.1 0.0 0.233 34.0
2020-02-27 11:15 44.42 12.46 -4.33 39.06 44.42 10.09 16.71 11.88 325.6 313.3 0.0 0.234 34.12
2020-02-27 11:20 44.91 12.05 -4.64 39.09 44.91 11.7 15.99 10.94 298.6 315.1 0.0 0.236 34.27
2020-02-27 11:25 44.47 11.5 -5.95 40.11 44.47 7.78 15.99 11.83 338.0 323.2 0.0 0.238 34.41
2020-02-27 11:30 45.27 12.83 -3.04 39.31 45.27 12.42 12.42 9.6 315.5 321.2 0.0 0.239 34.57
2020-02-27 11:35 44.78 12.32 -4.28 39.05 44.78 11.34 18.68 11.74 322.3 305.1 0.0 0.24 34.75
2020-02-27 11:40 44.83 12.56 -3.83 39.0 44.83 11.7 17.96 12.15 307.6 314.0 0.0 0.241 34.92
2020-02-27 11:45 45.52 13.28 -2.11 41.23 45.52 8.12 14.92 10.51 300.3 313.8 0.0 0.242 35.11
2020-02-27 11:50 45.14 11.09 -6.18 39.09 45.14 12.59 20.83 12.89 296.7 314.5 0.0 0.243 35.31
2020-02-27 11:55 45.39 12.12 -4.13 41.4 45.39 7.43 15.64 11.63 311.7 300.3 0.0 0.244 35.51
2020-02-27 12:00 45.39 11.26 -5.66 38.78 45.39 14.74 18.32 12.28 296.7 305.1 0.0 0.244 35.71
2020-02-27 12:05 45.64 11.23 -5.52 40.58 45.64 10.09 18.86 11.95 311.2 314.5 0.0 0.245 35.89
2020-02-27 12:10 46.0 10.65 -6.34 40.89 46.0 10.45 16.89 11.86 310.4 314.5 0.0 0.245 36.1
2020-02-27 12:15 46.18 10.14 -7.21 40.36 46.18 12.77 16.89 11.68 299.5 310.7 0.0 0.245 36.32
2020-02-27 12:20 46.31 10.55 -6.29 40.46 46.31 12.95 19.75 12.55 335.5 313.8 0.0 0.245 36.52
2020-02-27 12:25 46.08 10.27 -7.03 40.56 46.08 11.7 18.68 13.0 334.3 323.3 0.0 0.244 36.73
2020-02-27 12:30 45.82 10.92 -5.96 40.01 45.82 12.42 18.5 13.31 345.8 335.0 0.0 0.244 36.93
2020-02-27 12:35 47.23 9.73 -7.25 41.47 47.23 13.49 15.1 10.18 298.2 306.7 0.0 0.244 37.15
2020-02-27 12:40 46.87 10.55 -5.86 41.73 46.87 11.16 13.67 11.43 297.8 313.4 0.0 0.243 37.33
2020-02-27 12:45 47.48 10.17 -6.14 43.62 47.48 8.12 15.46 9.48 299.7 331.8 0.0 0.242 37.53
2020-02-27 12:50 47.17 10.14 -6.44 41.99 47.17 11.52 11.7 8.88 293.0 316.0 0.0 0.241 37.72
2020-02-27 12:55 47.05 10.78 -5.27 43.4 47.05 7.43 13.67 9.4 5.2 307.6 0.0 0.239 37.9
2020-02-27 13:00 48.09 10.55 -4.9 44.75 48.09 7.25 11.7 8.14 307.4 317.2 0.0 0.238 38.08
2020-02-27 13:05 47.91 10.65 -4.85 41.87 47.91 15.28 15.99 10.22 272.4 308.7 0.0 0.237 38.25
2020-02-27 13:10 47.59 11.43 -3.63 43.6 47.59 8.48 13.13 8.48 322.0 297.8 0.0 0.235 38.44
2020-02-27 13:15 47.71 10.82 -4.67 44.55 47.71 6.71 16.35 7.87 321.1 313.0 0.0 0.233 38.59
2020-02-27 13:20 48.2 10.0 -5.93 44.13 48.2 9.04 15.64 10.25 319.2 323.0 0.0 0.231 38.77
2020-02-27 13:25 47.71 11.06 -4.21 43.76 47.71 8.48 18.14 10.13 328.4 305.2 0.0 0.229 38.93
2020-02-27 13:30 48.09 9.93 -6.16 44.29 48.09 8.3 16.53 9.64 307.1 306.1 0.0 0.227 39.09
2020-02-27 13:35 48.27 9.49 -6.96 44.97 48.27 7.25 13.31 10.04 341.1 306.3 0.0 0.224 39.25
2020-02-27 13:40 48.4 9.35 -7.16 43.93 48.4 10.27 16.89 11.21 293.0 307.0 0.0 0.222 39.38
2020-02-27 13:45 48.45 8.84 -8.27 43.76 48.45 10.98 16.17 11.34 328.3 314.9 0.0 0.22 39.56
2020-02-27 13:50 48.27 9.79 -6.31 44.81 48.27 7.61 14.92 10.09 329.7 315.1 0.0 0.218 39.7
2020-02-27 13:55 48.2 9.32 -7.38 42.76 48.2 13.31 15.82 9.26 302.0 312.2 0.0 0.215 39.83
2020-02-27 14:00 48.81 9.28 -7.0 44.27 48.81 10.8 14.92 9.57 307.9 314.7 0.0 0.212 39.97
2020-02-27 14:05 48.94 9.69 -6.01 44.67 48.94 10.09 13.49 8.95 280.7 321.3 0.0 0.209 40.12
2020-02-27 14:10 49.93 10.1 -4.38 49.3 49.93 3.31 9.57 5.3 36.1 359.8 0.0 0.205 40.24
2020-02-27 14:15 50.97 8.6 -6.91 50.97 50.97 8.68 12.59 5.59 332.3 22.5 0.0 0.202 40.39
2020-02-27 14:20 50.11 9.76 -4.96 50.11 50.11 7.61 12.42 6.2 10.0 333.4 0.0 0.198 40.53
2020-02-27 14:25 50.41 10.03 -4.15 50.41 50.41 4.92 10.8 5.32 0.6 12.5 0.0 0.194 40.68
2020-02-27 14:30 51.58 9.96 -3.39 51.58 51.58 4.56 9.91 5.41 2.6 12.3 0.0 0.19 40.8
2020-02-27 14:35 50.79 9.52 -4.95 50.79 50.79 6.0 13.67 7.11 301.0 4.7 0.0 0.186 40.95
2020-02-27 14:40 51.64 10.54 -2.16 51.64 51.64 4.92 10.45 6.15 39.8 13.9 0.0 0.183 41.09
2020-02-27 14:45 50.67 10.07 -3.87 50.67 50.67 7.96 14.03 7.18 90.7 46.0 0.0 0.179 41.23
2020-02-27 14:50 51.46 9.9 -3.62 51.46 51.46 5.82 10.98 7.14 41.2 349.5 0.0 0.175 41.38
2020-02-27 14:55 51.46 9.69 -4.06 51.46 51.46 4.74 12.06 6.71 32.3 338.9 0.0 0.17 41.49
2020-02-27 15:00 52.07 10.61 -1.68 52.07 52.07 3.49 9.91 4.09 309.5 7.4 0.0 0.166 41.61
2020-02-27 15:05 51.4 10.51 -2.4 51.4 51.4 5.28 10.27 5.17 270.5 18.8 0.0 0.162 41.74
2020-02-27 15:10 51.46 11.02 -1.36 51.46 51.46 2.59 9.22 4.92 29.5 339.2 0.0 0.158 41.86
2020-02-27 15:15 51.84 10.85 -1.39 51.84 51.84 8.12 8.48 5.53 312.0 350.9 0.0 0.152 41.97
2020-02-27 15:20 52.25 11.12 -0.55 52.25 52.25 3.49 8.48 4.43 3.4 352.1 0.0 0.148 42.08
2020-02-27 15:25 51.03 10.65 -2.42 51.03 51.03 6.71 10.98 6.0 338.1 330.6 0.0 0.143 42.19
2020-02-27 15:30 51.15 11.23 -1.2 51.15 51.15 2.77 12.06 6.6 147.3 323.8 0.0 0.139 42.28
2020-02-27 15:35 51.46 10.89 -1.61 51.46 51.46 3.85 10.63 4.54 339.5 327.2 0.0 0.134 42.39
2020-02-27 15:40 50.97 11.09 -1.61 50.97 50.97 8.48 13.85 6.22 262.7 345.4 0.0 0.129 42.48
2020-02-27 15:45 51.33 10.58 -2.32 51.33 51.33 6.17 9.73 5.61 318.8 334.2 0.0 0.124 42.57
2020-02-27 15:50 51.51 10.95 -1.45 51.51 51.51 4.92 9.4 6.13 336.0 334.3 0.0 0.119 42.64
2020-02-27 15:55 51.03 10.92 -1.89 51.03 51.03 9.04 12.24 8.17 297.1 341.7 0.0 0.114 42.71
2020-02-27 16:00 50.47 11.23 -1.73 50.47 50.47 10.27 10.98 7.4 323.5 330.9 0.0 0.109 42.76
2020-02-27 16:05 50.23 11.74 -0.98 50.23 50.23 8.86 11.52 7.54 351.1 324.3 0.0 0.104 42.84
2020-02-27 16:10 50.23 12.11 -0.32 50.23 50.23 6.0 9.4 6.38 351.5 335.6 0.0 0.099 42.87
2020-02-27 16:15 50.67 12.25 0.27 50.67 50.67 4.21 9.91 5.48 58.9 346.3 0.0 0.094 42.91
2020-02-27 16:20 50.54 12.63 0.82 50.54 50.54 8.86 9.22 5.35 9.3 332.6 0.0 0.089 42.94
2020-02-27 16:25 50.16 13.17 1.42 50.16 50.16 4.74 8.12 5.28 297.8 319.8 0.0 0.084 42.98
2020-02-27 16:30 49.62 13.14 0.94 46.6 49.62 7.25 9.4 6.55 336.1 331.9 0.0 0.079 43.0
2020-02-27 16:35 48.94 13.34 0.72 48.02 48.94 3.49 11.16 6.87 23.0 314.6 0.0 0.074 43.02
2020-02-27 16:40 48.58 13.04 -0.06 44.81 48.58 8.48 10.8 7.83 46.7 325.4 0.0 0.069 43.02
2020-02-27 16:45 48.27 13.0 -0.37 44.36 48.27 8.68 12.06 7.61 324.2 321.6 0.0 0.064 43.02
2020-02-27 16:50 47.84 13.17 -0.43 44.7 47.84 6.71 11.52 7.94 336.6 324.9 0.0 0.059 43.02
2020-02-27 16:55 47.48 12.8 -1.33 44.95 47.48 5.46 11.16 7.4 323.8 330.5 0.0 0.055 43.0
2020-02-27 17:00 47.43 13.17 -0.76 45.0 47.43 5.28 11.16 6.42 327.0 322.2 0.0 0.05 42.98
2020-02-27 17:05 46.99 13.31 -0.89 44.17 46.99 5.82 8.48 6.46 348.7 326.2 0.0 0.038 42.94
2020-02-27 17:10 46.74 12.87 -1.8 43.77 46.74 6.0 9.22 5.44 316.6 325.8 0.0 0.035 42.91
2020-02-27 17:15 46.51 13.55 -0.9 42.83 46.51 7.25 7.25 4.59 319.3 331.1 0.0 0.015 42.87
2020-02-27 17:20 46.02 13.96 -0.65 43.01 46.02 5.82 7.25 4.94 327.2 315.9 0.0 0.006 42.8
2020-02-27 17:25 45.21 15.29 0.63 43.29 45.21 4.03 7.78 5.39 305.9 308.7 0.0 0.004 42.73
2020-02-27 17:30 43.32 16.25 0.4 43.32 43.32 2.77 7.25 3.51 337.2 291.1 0.0 0.003 42.64
2020-02-27 17:35 42.22 17.1 0.58 42.22 42.22 2.59 4.21 2.53 263.8 292.2 0.0 0.002 42.57
2020-02-27 17:40 40.69 18.67 1.2 38.24 40.69 3.85 5.1 3.11 254.2 265.8 0.0 0.002 42.48
2020-02-27 17:45 37.87 22.06 2.42 37.87 37.87 2.42 3.31 2.13 251.0 263.4 0.0 0.001 42.4
2020-02-27 17:50 35.73 25.06 3.35 32.7 35.73 3.67 3.67 1.92 296.7 267.7 0.0 0.0 42.3
2020-02-27 17:55 34.38 26.74 3.6 34.38 34.38 2.95 5.82 3.78 290.8 267.6 0.0 0.0 42.21
2020-02-27 18:00 33.64 27.28 3.39 33.64 33.64 2.59 3.67 2.68 292.4 275.3 0.0 0.0 42.1
2020-02-27 18:05 34.02 25.68 2.41 34.02 34.02 2.77 3.31 2.64 279.7 283.7 0.0 0.0 41.97
2020-02-27 18:10 34.09 26.13 2.85 34.09 34.09 1.16 2.95 1.66 229.7 256.0 0.0 0.0 41.88
2020-02-27 18:15 32.49 28.15 3.07 32.49 32.49 1.34 4.38 2.64 209.9 246.1 0.0 0.0 41.76
2020-02-27 18:20 30.22 31.43 3.47 30.22 30.22 2.42 4.21 2.68 214.1 245.0 0.0 0.0 41.63
2020-02-27 18:25 30.34 31.36 3.54 30.34 30.34 2.77 4.03 2.86 253.2 258.6 0.0 0.0 41.54
2020-02-27 18:30 29.62 32.29 3.53 25.7 29.62 3.67 4.21 3.18 239.0 256.1 0.0 0.0 41.41
2020-02-27 18:35 29.5 33.52 4.24 29.5 29.5 2.42 4.92 3.27 255.8 257.0 0.0 0.0 41.27
2020-02-27 18:40 28.63 34.75 4.25 28.63 28.63 1.88 3.49 1.79 239.8 264.1 0.0 0.0 41.14
2020-02-27 18:45 28.63 35.02 4.42 28.63 28.63 2.42 2.95 2.17 207.3 230.4 0.0 0.0 41.04
2020-02-27 18:50 29.57 32.6 3.69 29.57 29.57 2.06 3.13 2.06 244.6 249.5 0.0 0.0 40.91
2020-02-27 18:55 30.0 32.12 3.75 30.0 30.0 2.42 3.85 2.57 229.4 260.0 0.0 0.0 40.78
2020-02-27 19:00 29.95 32.4 3.89 29.95 29.95 2.06 3.67 2.86 230.6 254.8 0.0 0.0 40.66
2020-02-27 19:05 29.01 33.9 4.05 24.16 29.01 4.38 4.38 2.28 236.9 252.3 0.0 0.0 40.51
2020-02-27 19:10 28.65 36.26 5.2 24.58 28.65 3.67 4.38 2.98 296.2 279.6 0.0 0.0 40.42
2020-02-27 19:15 29.16 33.63 4.0 29.16 29.16 2.59 4.03 3.02 270.0 265.0 0.0 0.0 40.3
2020-02-27 19:20 29.1 34.28 4.37 29.1 29.1 1.7 4.03 2.64 249.3 255.5 0.0 0.0 40.17
2020-02-27 19:25 27.61 37.12 4.77 27.61 27.61 2.06 3.31 2.42 256.2 253.2 0.0 0.0 40.06
2020-02-27 19:30 26.69 39.31 5.2 26.69 26.69 0.0 4.03 2.3 325.6 286.7 0.0 0.0 39.94
2020-02-27 19:35 26.2 41.94 6.18 26.2 26.2 0.0 2.95 1.01 0.6 296.8 0.0 0.0 39.83
2020-02-27 19:40 25.72 41.02 5.25 25.72 25.72 0.0 0.81 0.11 315.9 248.8 0.0 0.0 39.72
2020-02-27 19:45 25.47 41.64 5.35 25.47 25.47 2.42 2.42 0.92 211.8 227.5 0.0 0.0 39.61
2020-02-27 19:50 24.8 42.49 5.19 19.26 24.8 4.38 4.74 2.89 212.6 225.9 0.0 0.0 39.49
2020-02-27 19:55 25.48 41.13 5.1 25.48 25.48 2.24 4.38 2.86 214.4 238.7 0.0 0.0 39.36
2020-02-27 20:00 25.84 41.37 5.55 19.71 25.84 5.1 5.64 3.24 312.2 256.1 0.0 0.0 39.25
2020-02-27 20:05 26.17 41.17 5.74 26.17 26.17 2.06 4.74 1.81 220.1 229.5 0.0 0.0 39.16
2020-02-27 20:10 25.92 41.1 5.47 21.21 25.92 3.85 4.92 2.91 248.3 258.0 0.0 0.0 39.06
2020-02-27 20:15 26.29 40.52 5.5 22.63 26.29 3.13 4.56 3.44 254.8 261.4 0.0 0.0 38.95
2020-02-27 20:20 26.22 40.76 5.57 26.22 26.22 2.95 2.95 2.08 215.6 228.7 0.0 0.0 38.84
2020-02-27 20:25 26.53 40.04 5.45 26.53 26.53 0.81 2.95 2.13 244.9 280.7 0.0 0.0 38.75
2020-02-27 20:30 26.53 40.52 5.72 26.53 26.53 0.98 3.49 1.36 249.2 268.9 0.0 0.0 38.64
2020-02-27 20:35 27.21 39.8 5.94 27.21 27.21 1.7 3.67 1.25 219.5 272.4 0.0 0.0 38.55
2020-02-27 20:40 26.47 42.61 6.77 26.47 26.47 1.52 4.03 2.21 261.7 210.8 0.0 0.0 38.46
2020-02-27 20:45 26.6 44.18 7.69 22.98 26.6 3.13 5.46 2.66 302.4 273.7 0.0 0.0 38.37
2020-02-27 20:50 27.7 41.1 7.09 24.22 27.7 3.13 6.17 2.57 279.2 278.7 0.0 0.0 38.26
2020-02-27 20:55 28.13 40.25 7.02 28.13 28.13 2.59 4.21 2.64 327.1 265.5 0.0 0.0 38.19
2020-02-27 21:00 28.44 39.08 6.65 23.49 28.44 4.38 4.38 1.77 246.5 301.8 0.0 0.0 38.08
2020-02-27 21:05 29.12 37.07 6.1 29.12 29.12 2.06 3.67 1.54 201.6 231.4 0.0 0.0 37.99
2020-02-27 21:10 29.12 38.43 6.89 25.59 29.12 3.31 3.67 2.17 262.7 286.8 0.0 0.0 37.92
2020-02-27 21:15 29.25 37.99 6.75 25.26 29.25 3.67 4.56 2.46 273.5 256.3 0.0 0.0 37.83
2020-02-27 21:20 28.94 39.12 7.12 28.94 28.94 1.88 3.67 1.54 210.8 254.0 0.0 0.0 37.74
2020-02-27 21:25 28.26 40.62 7.34 28.26 28.26 0.0 4.03 1.68 100.6 284.0 0.0 0.0 37.67
2020-02-27 21:30 28.26 40.93 7.5 28.26 28.26 1.88 3.85 2.21 333.7 275.8 0.0 0.0 37.58
2020-02-27 21:35 28.56 39.97 7.26 28.56 28.56 2.24 2.59 1.88 266.0 262.8 0.0 0.0 37.51
2020-02-27 21:40 28.76 40.86 7.92 25.43 28.76 3.13 4.21 1.16 282.3 303.9 0.0 0.0 37.44
2020-02-27 21:45 27.95 41.34 7.45 24.01 27.95 3.49 3.49 1.97 260.3 268.6 0.0 0.0 37.36
2020-02-27 21:50 28.44 41.17 7.8 28.44 28.44 2.95 4.56 3.15 258.3 264.9 0.0 0.0 37.29
2020-02-27 21:55 26.22 45.44 7.96 21.79 26.22 3.67 3.85 2.57 268.1 257.8 0.0 0.0 37.18
2020-02-27 22:00 26.53 44.18 7.62 21.48 26.53 4.21 5.64 3.78 289.2 269.1 0.0 0.0 37.13
2020-02-27 22:05 27.95 40.31 6.89 23.78 27.95 3.67 4.38 3.15 278.3 286.0 0.0 0.0 37.06
2020-02-27 22:10 28.2 41.44 7.73 23.03 28.2 4.56 4.56 2.53 266.3 284.3 0.0 0.0 37.02
2020-02-27 22:15 28.26 41.78 7.96 28.26 28.26 2.95 5.1 3.62 307.3 265.7 0.0 0.0 36.95
2020-02-27 22:20 28.56 40.21 7.39 28.56 28.56 2.95 4.56 3.4 284.1 276.0 0.0 0.0 36.88
2020-02-27 22:25 28.51 39.84 7.14 23.77 28.51 4.21 4.74 3.51 273.8 272.8 0.0 0.0 36.81
2020-02-27 22:30 29.07 40.14 7.81 29.07 29.07 2.77 4.74 2.82 268.1 285.9 0.0 0.0 36.77
2020-02-27 22:35 28.08 42.02 7.92 23.92 28.08 3.67 4.74 3.2 278.2 263.6 0.0 0.0 36.72
2020-02-27 22:40 28.0 42.88 8.31 24.07 28.0 3.49 6.17 4.16 235.4 266.5 0.0 0.0 36.66
2020-02-27 22:45 28.44 42.13 8.31 28.44 28.44 2.95 6.71 4.07 320.5 282.2 0.0 0.0 36.61
2020-02-27 22:50 29.48 39.77 7.97 24.52 29.48 4.56 6.0 4.74 295.3 287.9 0.0 0.0 36.57
2020-02-27 22:55 30.54 37.78 7.79 25.58 30.54 4.74 5.82 4.61 302.6 289.2 0.0 0.0 36.54
2020-02-27 23:00 31.28 36.76 7.85 25.79 31.28 5.46 6.35 4.94 285.1 286.4 0.0 0.0 36.48
2020-02-27 23:05 31.03 37.17 7.87 26.51 31.03 4.38 6.17 4.9 291.6 294.3 0.0 0.0 36.43
2020-02-27 23:10 30.47 38.64 8.23 27.37 30.47 3.13 6.17 3.8 285.9 271.7 0.0 0.0 36.39
2020-02-27 23:15 29.37 40.45 8.25 29.37 29.37 2.42 4.92 3.4 280.6 279.9 0.0 0.0 36.36
2020-02-27 23:20 29.86 38.98 7.87 29.86 29.86 2.95 4.03 3.11 250.8 287.7 0.0 0.0 36.32
2020-02-27 23:25 30.42 38.37 8.02 30.42 30.42 2.77 3.31 2.73 268.6 270.1 0.0 0.0 36.28
2020-02-27 23:30 27.46 44.42 8.6 27.46 27.46 2.24 5.82 3.11 298.3 231.8 0.0 0.0 36.23
2020-02-27 23:35 27.21 43.46 7.88 22.07 27.21 4.38 4.38 3.29 257.1 278.7 0.0 0.0 36.19
2020-02-27 23:40 27.27 44.11 8.26 27.27 27.27 2.59 5.46 3.71 313.6 259.7 0.0 0.0 36.16
2020-02-27 23:45 27.21 43.84 8.08 23.16 27.21 3.49 4.56 3.04 264.9 268.4 0.0 0.0 36.12
2020-02-27 23:50 26.83 44.72 8.17 26.83 26.83 1.7 3.31 2.37 229.5 257.9 0.0 0.0 36.09
2020-02-27 23:55 27.09 45.41 8.74 27.09 27.09 1.16 4.03 1.86 332.3 256.1 0.0 0.0 36.03
2020-02-28 00:00 27.77 43.19 8.25 27.77 27.77 0.0 2.42 1.28 316.4 297.2 0.0 0.0 36.01
2020-02-28 00:05 26.6 45.51 8.34 22.0 26.6 3.85 4.03 1.88 225.6 231.9 0.0 0.0 35.98
2020-02-28 00:10 25.61 47.19 8.24 18.91 25.61 5.64 6.71 3.29 262.2 259.3 0.0 0.0 35.94
2020-02-28 00:15 26.65 44.73 8.01 22.78 26.65 3.31 5.1 3.69 281.8 287.8 0.0 0.0 35.92
2020-02-28 00:20 26.91 44.76 8.26 26.91 26.91 2.42 4.74 3.02 278.0 259.1 0.0 0.0 35.91
2020-02-28 00:25 27.95 42.06 7.83 24.01 27.95 3.49 5.1 3.53 250.6 268.6 0.0 0.0 35.87
2020-02-28 00:30 28.08 42.2 8.02 28.08 28.08 2.59 4.21 3.13 304.2 242.6 0.0 0.0 35.83
2020-02-28 00:35 27.21 44.38 8.35 27.21 27.21 2.42 4.21 2.91 297.7 275.6 0.0 0.0 35.8
2020-02-28 00:40 26.42 44.86 7.86 22.77 26.42 3.13 4.38 2.86 293.6 281.5 0.0 0.0 35.76
2020-02-28 00:45 27.7 43.19 8.19 24.22 27.7 3.13 4.56 2.86 254.2 238.1 0.0 0.0 35.73
2020-02-28 00:50 27.27 43.22 7.81 21.74 27.27 4.74 7.07 2.95 247.2 279.8 0.0 0.0 35.69
2020-02-28 00:55 26.78 45.68 8.59 26.78 26.78 2.77 5.46 3.38 274.7 243.6 0.0 0.0 35.67
2020-02-28 01:00 26.35 45.75 8.23 22.18 26.35 3.49 3.85 2.55 215.4 247.0 0.0 0.0 35.65
2020-02-28 01:05 24.87 49.17 8.47 24.87 24.87 2.42 4.21 3.29 247.3 239.8 0.0 0.0 35.62
2020-02-28 01:10 24.62 48.97 8.15 24.62 24.62 1.16 4.38 2.66 244.7 258.7 0.0 0.0 35.58
2020-02-28 01:15 23.27 53.62 8.91 23.27 23.27 2.24 3.31 2.44 268.4 250.1 0.0 0.0 35.56
2020-02-28 01:20 21.67 55.05 8.0 16.56 21.67 3.67 3.67 2.39 274.9 250.9 0.0 0.0 35.53
2020-02-28 01:25 21.92 54.57 8.04 21.92 21.92 2.24 4.56 2.93 236.9 262.6 0.0 0.0 35.51
2020-02-28 01:30 19.94 59.29 8.01 19.94 19.94 0.0 4.21 2.51 303.2 229.2 0.0 0.0 35.49
2020-02-28 01:35 19.45 61.38 8.32 14.57 19.45 3.31 4.03 2.82 263.0 236.7 0.0 0.0 35.46
2020-02-28 01:40 21.36 56.05 8.11 21.36 21.36 2.95 5.82 4.23 281.8 255.6 0.0 0.0 35.42
2020-02-28 01:45 22.12 55.3 8.52 22.12 22.12 1.7 5.1 3.53 249.3 250.3 0.0 0.0 35.4
2020-02-28 01:50 21.81 52.53 7.09 21.81 21.81 2.59 4.03 2.98 254.0 263.7 0.0 0.0 35.38
2020-02-28 01:55 23.04 50.89 7.53 17.0 23.04 4.56 4.92 3.33 231.6 247.3 0.0 0.0 35.35
2020-02-28 02:00 22.86 51.85 7.78 22.86 22.86 1.88 4.92 3.11 293.5 263.7 0.0 0.0 35.31
2020-02-28 02:05 23.77 50.66 8.12 23.77 23.77 2.77 3.31 2.48 280.1 263.6 0.0 0.0 35.29
2020-02-28 02:10 24.76 47.48 7.6 19.65 24.76 4.03 4.74 2.93 257.9 252.5 0.0 0.0 35.26
2020-02-28 02:15 25.39 47.03 7.97 25.39 25.39 2.06 4.38 2.95 271.8 262.1 0.0 0.0 35.24
2020-02-28 02:20 26.13 45.08 7.71 26.13 26.13 2.59 4.38 2.89 220.3 252.2 0.0 0.0 35.22
2020-02-28 02:25 23.97 50.08 8.04 23.97 23.97 2.95 5.64 3.6 273.9 259.2 0.0 0.0 35.22
2020-02-28 02:30 24.58 47.92 7.63 24.58 24.58 2.95 4.92 3.47 224.9 265.7 0.0 0.0 35.19
2020-02-28 02:35 25.75 44.74 7.19 20.37 25.75 4.38 5.1 3.53 278.5 256.4 0.0 0.0 35.15
2020-02-28 02:40 25.25 46.52 7.59 19.39 25.25 4.74 7.07 3.76 310.3 264.2 0.0 0.0 35.13
2020-02-28 02:45 25.68 45.83 7.66 20.29 25.68 4.38 6.0 4.18 257.9 264.0 0.0 0.0 35.11
2020-02-28 02:50 23.67 50.55 7.97 23.67 23.67 1.52 6.17 2.91 241.8 237.2 0.0 0.0 35.08
2020-02-28 02:55 22.91 51.44 7.65 22.91 22.91 2.24 3.31 2.06 124.8 42.9 0.0 0.0 35.08
2020-02-28 03:00 21.81 54.0 7.7 21.81 21.81 1.88 4.21 2.95 232.9 236.7 0.0 0.0 35.04
2020-02-28 03:05 21.31 54.04 7.25 21.31 21.31 1.52 4.92 2.91 264.4 256.0 0.0 0.0 35.01
2020-02-28 03:10 22.17 52.67 7.49 17.4 22.17 3.49 3.49 2.33 344.8 326.6 0.0 0.0 34.99
2020-02-28 03:15 22.42 51.58 7.26 22.42 22.42 2.06 4.38 3.42 292.3 289.4 0.0 0.0 34.97
2020-02-28 03:20 22.32 52.47 7.54 22.32 22.32 0.81 2.06 1.14 229.0 261.8 0.0 0.0 34.93
2020-02-28 03:25 21.15 54.59 7.32 21.15 21.15 1.16 2.95 1.07 67.1 227.3 0.0 0.0 34.92
2020-02-28 03:30 19.35 58.97 7.33 19.35 19.35 1.7 3.67 1.72 298.8 266.2 0.0 0.0 34.9
2020-02-28 03:35 18.12 60.48 6.73 11.97 18.12 4.03 5.1 3.51 248.3 234.1 0.0 0.0 34.88
2020-02-28 03:40 19.47 58.12 7.13 14.88 19.47 3.13 5.28 3.83 298.5 282.0 0.0 0.0 34.84
2020-02-28 03:45 21.15 53.84 7.02 21.15 21.15 1.7 3.85 2.48 249.5 290.9 0.0 0.0 34.81
2020-02-28 03:50 20.52 56.27 7.4 13.84 20.52 4.74 5.28 3.56 271.0 231.7 0.0 0.0 34.81
2020-02-28 03:55 20.08 57.26 7.38 14.0 20.08 4.21 5.1 3.04 237.4 231.1 0.0 0.0 34.77
2020-02-28 04:00 19.78 57.88 7.33 14.39 19.78 3.67 6.89 4.59 232.4 241.0 0.0 0.0 34.77
2020-02-28 04:05 20.03 56.61 7.08 15.23 20.03 3.31 4.74 3.06 247.7 260.8 0.0 0.0 34.75
2020-02-28 04:10 19.98 56.37 6.93 14.89 19.98 3.49 6.53 4.3 238.4 256.9 0.0 0.0 34.72
2020-02-28 04:15 19.47 56.4 6.47 14.88 19.47 3.13 6.35 4.03 331.8 258.4 0.0 0.0 34.72
2020-02-28 04:20 19.35 58.35 7.1 19.35 19.35 2.06 3.31 2.1 151.4 196.2 0.0 0.0 34.68
2020-02-28 04:25 19.11 57.33 6.49 14.48 19.11 3.13 4.03 3.02 219.0 252.2 0.0 0.0 34.66
2020-02-28 04:30 19.24 57.26 6.58 19.24 19.24 1.7 3.85 2.33 126.4 301.0 0.0 0.0 34.65
2020-02-28 04:35 18.12 60.24 6.65 11.49 18.12 4.38 4.56 3.04 278.2 185.6 0.0 0.0 34.61
2020-02-28 04:40 18.25 59.96 6.66 18.25 18.25 2.42 5.64 3.4 258.6 307.6 0.0 0.0 34.61
2020-02-28 04:45 18.0 60.48 6.62 18.0 18.0 1.34 3.49 2.04 153.0 262.4 0.0 0.0 34.57
2020-02-28 04:50 17.08 61.85 6.24 17.08 17.08 2.24 3.67 2.21 252.7 235.5 0.0 0.0 34.56
2020-02-28 04:55 17.02 61.92 6.21 17.02 17.02 1.34 6.17 2.82 258.4 279.7 0.0 0.0 34.54
2020-02-28 05:00 17.51 61.24 6.43 17.51 17.51 1.34 3.49 2.13 16.1 285.4 0.0 0.0 34.54
2020-02-28 05:05 18.27 58.64 6.19 18.27 18.27 2.06 4.21 2.44 273.2 293.9 0.0 0.0 34.5
2020-02-28 05:10 18.57 58.61 6.47 18.57 18.57 0.81 1.7 0.69 11.7 330.2 0.0 0.0 34.47
2020-02-28 05:15 17.83 59.95 6.27 17.83 17.83 1.34 3.31 1.95 263.2 257.1 0.0 0.0 34.47
2020-02-28 05:20 15.93 63.51 5.72 9.43 15.93 4.03 7.43 1.92 246.5 229.9 0.0 0.0 34.43
2020-02-28 05:25 15.98 65.15 6.34 15.98 15.98 0.0 3.13 1.9 347.6 339.9 0.0 0.0 34.41
2020-02-28 05:30 15.93 63.03 5.56 10.86 15.93 3.13 3.13 2.19 211.0 229.2 0.0 0.0 34.39
2020-02-28 05:35 15.19 65.22 5.6 8.08 15.19 4.38 4.38 1.97 266.2 252.6 0.0 0.0 34.38
2020-02-28 05:40 15.67 65.49 6.16 15.67 15.67 1.52 5.1 3.33 326.4 297.5 0.0 0.0 34.36
2020-02-28 05:45 16.36 64.23 6.38 16.36 16.36 2.24 2.95 1.16 4.0 4.3 0.0 0.0 34.34
2020-02-28 05:50 16.11 63.68 5.95 16.11 16.11 2.42 2.42 1.43 320.8 256.4 0.0 0.0 34.34
2020-02-28 05:55 16.54 63.2 6.2 16.54 16.54 2.24 4.56 2.55 208.8 166.1 0.0 0.0 34.32
2020-02-28 06:00 18.75 57.96 6.39 18.75 18.75 2.06 6.89 2.73 211.4 290.9 0.0 0.0 34.29
2020-02-28 06:05 17.89 60.15 6.39 17.89 17.89 2.77 2.95 1.74 272.1 300.9 0.0 0.0 34.29
2020-02-28 06:10 17.1 61.73 6.21 17.1 17.1 1.34 3.85 2.73 297.9 251.7 0.0 0.0 34.27
2020-02-28 06:15 17.04 63.13 6.65 17.04 17.04 0.0 1.88 0.87 195.9 334.9 0.0 0.0 34.25
2020-02-28 06:20 16.41 62.58 5.86 11.1 16.41 3.31 4.38 1.61 272.2 275.9 0.0 0.0 34.21
2020-02-28 06:25 15.67 64.4 5.79 15.67 15.67 2.24 4.03 2.98 221.8 221.6 0.0 0.0 34.21
2020-02-28 06:30 15.67 66.11 6.36 15.67 15.67 2.77 4.92 2.46 275.0 289.2 0.0 0.0 34.2
2020-02-28 06:35 17.4 61.45 6.4 17.4 17.4 1.88 4.74 2.95 272.3 292.7 0.0 0.001 34.2
2020-02-28 06:40 17.89 59.5 6.15 12.5 17.89 3.49 6.0 3.78 303.1 261.3 0.0 0.001 34.16
2020-02-28 06:45 19.13 56.94 6.36 19.13 19.13 2.77 3.49 2.73 222.0 247.7 0.0 0.009 34.14
2020-02-28 06:50 19.92 54.82 6.27 15.1 19.92 3.31 5.28 3.15 205.3 236.9 0.0 0.015 34.12
2020-02-28 06:55 20.12 53.86 6.06 20.12 20.12 2.59 5.28 3.85 253.3 255.3 0.0 0.019 34.11
2020-02-28 07:00 22.15 49.68 6.18 15.76 22.15 4.74 5.82 3.83 275.6 267.2 0.0 0.024 34.11
2020-02-28 07:05 22.33 51.22 7.02 22.33 22.33 2.77 4.56 2.68 334.3 312.8 0.0 0.028 34.07
2020-02-28 07:10 22.95 52.04 7.94 22.95 22.95 1.52 3.31 1.57 43.6 2.6 0.0 0.032 34.07
2020-02-28 07:15 22.77 52.11 7.8 22.77 22.77 0.81 2.42 1.01 88.8 114.4 0.0 0.037 34.05
2020-02-28 07:20 23.74 51.63 8.5 23.74 23.74 0.0 0.81 0.04 340.6 42.5 0.0 0.042 34.03
2020-02-28 07:25 24.22 51.45 8.88 17.99 24.22 4.92 5.64 2.66 241.8 248.2 0.0 0.046 34.02
2020-02-28 07:30 25.83 46.08 7.91 19.87 25.83 4.92 6.53 4.63 282.8 260.9 0.0 0.052 34.02
2020-02-28 07:35 27.36 39.68 6.01 22.04 27.36 4.56 5.1 4.0 264.1 266.2 0.0 0.057 33.98
2020-02-28 07:40 29.01 39.81 7.57 24.77 29.01 3.85 5.28 4.09 327.8 281.1 0.0 0.061 33.98
2020-02-28 07:45 30.43 35.54 6.35 27.08 30.43 3.31 4.92 3.31 260.5 287.2 0.0 0.066 33.94
2020-02-28 07:50 32.14 35.63 7.93 32.14 32.14 2.77 4.56 3.02 281.2 276.7 0.0 0.071 33.94
2020-02-28 07:55 33.55 34.37 8.38 30.63 33.55 3.31 4.38 3.51 266.2 272.2 0.0 0.076 33.94
2020-02-28 08:00 34.72 35.53 10.16 34.72 34.72 2.59 4.56 3.2 291.0 284.9 0.0 0.081 33.93
2020-02-28 08:05 35.26 32.14 8.41 32.37 35.26 3.49 6.17 3.31 322.5 296.1 0.0 0.086 33.93
2020-02-28 08:10 36.81 30.36 8.5 34.35 36.81 3.31 4.21 2.93 303.4 318.2 0.0 0.091 33.91
2020-02-28 08:15 37.65 23.55 3.65 35.52 37.65 3.13 6.0 3.98 314.2 309.8 0.0 0.096 33.91
2020-02-28 08:20 40.41 16.99 -1.05 36.71 40.41 5.28 10.45 5.21 321.0 319.1 0.0 0.101 33.89
2020-02-28 08:25 41.45 17.74 0.73 37.02 41.45 6.71 7.25 4.61 267.2 290.1 0.0 0.107 33.89
2020-02-28 08:30 42.37 17.56 1.27 39.29 42.37 4.92 7.61 4.81 303.1 274.8 0.0 0.112 33.87
2020-02-28 08:35 42.8 16.78 0.65 39.42 42.8 5.46 5.46 4.3 295.6 269.7 0.0 0.116 33.87
2020-02-28 08:40 43.03 16.23 0.13 40.07 43.03 4.92 6.53 5.17 352.8 272.1 0.0 0.121 33.85
2020-02-28 08:45 43.88 15.07 -0.76 41.06 43.88 4.92 7.07 4.32 255.4 272.9 0.0 0.127 33.85
2020-02-28 08:50 44.17 15.34 -0.14 40.29 44.17 6.71 8.48 5.12 228.3 259.7 0.0 0.132 33.85
2020-02-28 08:55 44.98 16.4 1.95 43.33 44.98 3.67 8.86 4.52 276.6 250.8 0.0 0.138 33.85
2020-02-28 09:00 45.52 15.75 1.52 44.27 45.52 3.31 7.07 4.59 335.9 289.0 0.0 0.14 33.85
2020-02-28 09:05 45.63 13.83 -1.17 41.77 45.63 7.25 8.3 5.59 351.4 313.7 0.0 0.147 33.85
2020-02-28 09:10 45.88 12.05 -3.87 42.34 45.88 6.71 12.59 8.12 315.6 320.6 0.0 0.152 33.82
2020-02-28 09:15 45.99 11.37 -5.0 40.81 45.99 10.63 14.03 8.99 327.4 321.7 0.0 0.156 33.82
2020-02-28 09:20 46.29 11.47 -4.57 42.94 46.29 6.53 10.98 7.9 306.2 309.7 0.0 0.161 33.82
2020-02-28 09:25 46.53 12.36 -2.82 43.12 46.53 6.71 12.77 8.23 2.3 311.3 0.0 0.166 33.82
2020-02-28 09:30 47.08 10.55 -5.69 41.66 47.08 12.24 12.24 7.36 301.9 316.0 0.0 0.171 33.82
2020-02-28 09:35 47.7 11.1 -4.15 43.74 47.7 8.48 10.45 7.16 309.1 304.8 0.0 0.176 33.8
2020-02-28 09:40 47.57 11.16 -4.14 43.88 47.57 7.78 11.88 8.61 316.7 292.3 0.0 0.174 33.8
2020-02-28 09:45 47.8 10.55 -5.13 43.44 47.8 9.57 10.09 7.65 289.3 315.4 0.0 0.178 33.8
2020-02-28 09:50 47.8 11.16 -3.96 44.75 47.8 6.53 11.52 7.25 329.0 315.4 0.0 0.183 33.8
2020-02-28 09:55 48.16 9.73 -6.52 44.45 48.16 8.12 9.4 6.08 315.5 305.7 0.0 0.192 33.8
2020-02-28 10:00 48.47 10.17 -5.37 45.13 48.47 7.43 9.57 6.53 330.3 311.7 0.0 0.188 33.82

Data is courtesy of the NM Climate Center. DO NOT USE IN LEGAL PROCEEDINGS.